createdAt,value
2023-02-12T00:04:47.159Z,1.5
2023-02-12T00:07:11.694Z,1.6
2023-02-12T00:12:12.202Z,1.9
2023-02-12T00:17:12.768Z,1.3
2023-02-12T00:22:13.278Z,1.1
2023-02-12T00:27:13.912Z,1.2
2023-02-12T00:32:14.528Z,1.1
2023-02-12T00:37:14.977Z,1.6
2023-02-12T00:42:15.555Z,1.4
2023-02-12T00:47:16.057Z,1.3
2023-02-12T00:52:16.704Z,1.5
2023-02-12T00:57:17.196Z,1.6
2023-02-12T01:02:17.715Z,1.8
2023-02-12T01:07:18.453Z,1.6
2023-02-12T01:12:18.763Z,1.6
2023-02-12T01:17:19.350Z,1.8
2023-02-12T01:22:19.844Z,1.8
2023-02-12T01:27:20.941Z,1.5
2023-02-12T01:32:21.011Z,1.7
2023-02-12T01:37:21.591Z,1.4
2023-02-12T01:42:22.162Z,1.5
2023-02-12T01:47:23.001Z,1.3
2023-02-12T01:52:23.171Z,1.8
2023-02-12T01:57:23.838Z,1.6
2023-02-12T02:02:24.335Z,1.5
2023-02-12T02:07:24.803Z,1.4
2023-02-12T02:12:25.467Z,1.5
2023-02-12T02:17:25.771Z,1.8
2023-02-12T02:22:26.421Z,1.8
2023-02-12T02:27:27.258Z,2.0
2023-02-12T02:32:27.312Z,1.6
2023-02-12T02:37:27.857Z,1.8
2023-02-12T02:42:28.536Z,1.5
2023-02-12T02:47:28.911Z,1.5
2023-02-12T02:52:29.501Z,1.5
2023-02-12T02:57:30.098Z,1.5
2023-02-12T03:02:30.630Z,1.9
2023-02-12T03:07:31.116Z,1.5
2023-02-12T03:12:31.904Z,1.3
2023-02-12T03:17:32.182Z,1.5
2023-02-12T03:22:32.770Z,1.5
2023-02-12T03:27:33.783Z,1.6
2023-02-12T03:32:33.859Z,1.5
2023-02-12T03:37:34.451Z,1.8
2023-02-12T03:42:34.945Z,1.9
2023-02-12T03:47:35.436Z,1.8
2023-02-12T03:52:35.924Z,1.4
2023-02-12T03:57:36.609Z,1.6
2023-02-12T04:02:36.941Z,1.8
2023-02-12T04:07:37.522Z,1.4
2023-02-12T04:12:38.145Z,1.6
2023-02-12T04:17:38.564Z,1.6
2023-02-12T04:22:39.011Z,1.8
2023-02-12T04:27:39.803Z,1.5
2023-02-12T04:32:40.056Z,1.6
2023-02-12T04:37:40.667Z,2.3
2023-02-12T04:42:41.149Z,1.9
2023-02-12T04:47:41.676Z,1.5
2023-02-12T04:52:42.073Z,1.8
2023-02-12T04:57:42.674Z,1.7
2023-02-12T05:02:43.045Z,1.2
2023-02-12T05:07:43.628Z,1.3
2023-02-12T05:12:44.121Z,1.5
2023-02-12T05:17:44.652Z,1.3
2023-02-12T05:22:45.090Z,1.5
2023-02-12T05:27:45.993Z,1.6
2023-02-12T05:32:46.104Z,1.5
2023-02-12T05:37:46.705Z,1.3
2023-02-12T05:42:47.178Z,1.5
2023-02-12T05:47:47.695Z,2.1
2023-02-12T05:52:48.118Z,1.7
2023-02-12T05:57:48.836Z,1.5
2023-02-12T06:02:49.170Z,1.9
2023-02-12T06:07:49.746Z,1.7
2023-02-12T06:12:50.206Z,1.4
2023-02-12T06:17:50.694Z,1.5
2023-02-12T06:22:51.142Z,1.8
2023-02-12T06:27:52.080Z,1.5
2023-02-12T06:32:52.166Z,1.6
2023-02-12T06:37:52.728Z,1.9
2023-02-12T06:42:53.320Z,1.6
2023-02-12T06:47:53.738Z,1.7
2023-02-12T06:52:54.312Z,1.6
2023-02-12T06:57:54.849Z,1.7
2023-02-12T07:02:55.353Z,1.8
2023-02-12T07:07:55.762Z,1.8
2023-02-12T07:12:56.461Z,1.9
2023-02-12T07:17:56.796Z,1.8
2023-02-12T07:22:57.387Z,1.4
2023-02-12T07:27:58.196Z,1.7
2023-02-12T07:32:58.393Z,1.7
2023-02-12T07:37:58.805Z,1.6
2023-02-12T07:42:59.422Z,1.5
2023-02-12T07:47:59.720Z,1.9
2023-02-12T07:53:00.238Z,1.5
2023-02-12T07:58:00.761Z,1.7
2023-02-12T08:03:01.140Z,1.9
2023-02-12T08:08:01.731Z,1.7
2023-02-12T08:13:02.233Z,1.7
2023-02-12T08:18:02.640Z,1.5
2023-02-12T08:23:03.064Z,2.1
2023-02-12T08:28:03.976Z,1.7
2023-02-12T08:33:04.048Z,2.0
2023-02-12T08:38:04.577Z,2.0
2023-02-12T08:43:05.083Z,1.5
2023-02-12T08:48:05.605Z,1.7
2023-02-12T08:53:06.100Z,1.3
2023-02-12T08:58:06.769Z,1.7
2023-02-12T09:03:07.091Z,1.6
2023-02-12T09:08:07.743Z,1.9
2023-02-12T09:13:08.273Z,1.9
2023-02-12T09:18:08.725Z,1.4
2023-02-12T09:23:09.314Z,1.4
2023-02-12T09:28:10.191Z,1.4
2023-02-12T09:33:10.396Z,1.5
2023-02-12T09:38:10.952Z,2.3
2023-02-12T09:43:11.464Z,1.5
2023-02-12T09:48:11.802Z,1.2
2023-02-12T09:53:12.340Z,1.7
2023-02-12T09:58:12.849Z,1.6
2023-02-12T10:03:13.347Z,1.6
2023-02-12T10:08:13.806Z,1.4
2023-02-12T10:13:14.424Z,1.1
2023-02-12T10:18:14.716Z,1.2
2023-02-12T10:23:15.306Z,1.4
2023-02-12T10:28:16.236Z,1.3
2023-02-12T10:33:16.406Z,1.2
2023-02-12T10:38:16.801Z,1.2
2023-02-12T10:43:17.431Z,1.4
2023-02-12T10:48:19.057Z,1.2
2023-02-12T10:53:18.426Z,1.3
2023-02-12T10:58:18.920Z,1.0
2023-02-12T11:03:19.438Z,1.3
2023-02-12T11:08:19.838Z,1.1
2023-02-12T11:13:20.485Z,1.4
2023-02-12T11:18:20.848Z,2.2
2023-02-12T11:23:21.459Z,1.3
2023-02-12T11:28:22.428Z,1.2
2023-02-12T11:33:22.362Z,1.3
2023-02-12T11:38:23.754Z,1.3
2023-02-12T11:43:23.513Z,1.5
2023-02-12T11:48:23.872Z,1.4
2023-02-12T11:53:24.472Z,1.2
2023-02-12T11:58:25.093Z,1.2
2023-02-12T12:03:25.543Z,1.1
2023-02-12T12:08:25.959Z,1.9
2023-02-12T12:13:26.648Z,1.1
2023-02-12T12:18:26.985Z,1.3
2023-02-12T12:23:27.625Z,1.2
2023-02-12T12:28:28.721Z,1.5
2023-02-12T12:33:28.640Z,1.8
2023-02-12T12:38:29.187Z,1.7
2023-02-12T12:43:29.768Z,0.9
2023-02-12T12:48:30.426Z,1.5
2023-02-12T12:53:30.741Z,1.2
2023-02-12T12:58:31.462Z,1.6
2023-02-12T13:03:31.862Z,1.4
2023-02-12T13:08:32.490Z,1.3
2023-02-12T13:13:33.042Z,1.5
2023-02-12T13:18:33.581Z,1.1
2023-02-12T13:23:34.038Z,1.2
2023-02-12T13:28:35.261Z,1.2
2023-02-12T13:33:35.073Z,1.1
2023-02-12T13:38:35.742Z,1.0
2023-02-12T13:43:36.377Z,1.3
2023-02-12T13:48:36.769Z,1.3
2023-02-12T13:53:37.420Z,1.2
2023-02-12T13:58:37.941Z,1.0
2023-02-12T14:03:38.499Z,1.4
2023-02-12T14:08:38.989Z,1.3
2023-02-12T14:13:39.741Z,1.5
2023-02-12T14:18:40.205Z,1.2
2023-02-12T14:23:40.737Z,1.1
2023-02-12T14:28:41.473Z,1.8
2023-02-12T14:33:41.854Z,1.1
2023-02-12T14:38:47.544Z,1.3
2023-02-12T14:43:43.106Z,1.1
2023-02-12T14:48:43.543Z,1.1
2023-02-12T14:53:44.081Z,1.0
2023-02-12T14:58:44.792Z,1.1
2023-02-12T15:03:45.153Z,1.0
2023-02-12T15:08:45.695Z,0.8
2023-02-12T15:13:46.427Z,0.8
2023-02-12T15:18:46.989Z,0.8
2023-02-12T15:23:47.504Z,0.8
2023-02-12T15:28:47.970Z,0.8
2023-02-12T15:33:48.632Z,0.9
2023-02-12T15:38:49.088Z,0.8
2023-02-12T15:43:49.816Z,0.7
2023-02-12T15:48:50.329Z,0.8
2023-02-12T15:53:50.766Z,1.0
2023-02-12T15:58:51.446Z,0.8
2023-02-12T16:03:51.890Z,0.8
2023-02-12T16:08:52.420Z,0.8
2023-02-12T16:13:52.990Z,0.8
2023-02-12T16:18:53.507Z,1.0
2023-02-12T16:23:53.970Z,0.9
2023-02-12T16:28:55.016Z,1.0
2023-02-12T16:33:55.158Z,0.9
2023-02-12T16:38:55.798Z,0.9
2023-02-12T16:43:56.464Z,0.8
2023-02-12T16:48:56.887Z,0.8
2023-02-12T16:53:57.836Z,0.9
2023-02-12T16:58:58.140Z,0.8
2023-02-12T17:03:58.875Z,0.7
2023-02-12T17:08:59.211Z,0.8
2023-02-12T17:13:59.862Z,0.5
2023-02-12T17:19:00.573Z,0.5
2023-02-12T17:24:00.985Z,0.7
2023-02-12T17:29:01.929Z,0.7
2023-02-12T17:34:02.188Z,0.8
2023-02-12T17:39:02.766Z,0.7
2023-02-12T17:44:03.538Z,0.7
2023-02-12T17:49:03.906Z,0.7
2023-02-12T17:54:04.603Z,0.7
2023-02-12T17:59:05.241Z,0.5
2023-02-12T18:04:05.782Z,0.6
2023-02-12T18:09:06.338Z,0.7
2023-02-12T18:14:06.871Z,0.7
2023-02-12T18:19:07.431Z,0.7
2023-02-12T18:24:07.943Z,0.8
2023-02-12T18:29:08.882Z,0.6
2023-02-12T18:34:09.069Z,0.7
2023-02-12T18:39:09.751Z,0.5
2023-02-12T18:44:10.377Z,0.6
2023-02-12T18:49:10.801Z,0.7
2023-02-12T18:54:13.258Z,0.7
2023-02-12T18:59:13.388Z,0.5
2023-02-12T19:04:13.257Z,0.9
2023-02-12T19:09:13.031Z,0.6
2023-02-12T19:14:13.691Z,0.7
2023-02-12T19:19:14.209Z,0.6
2023-02-12T19:24:14.726Z,0.6
2023-02-12T19:29:15.927Z,0.6
2023-02-12T19:34:15.915Z,0.6
2023-02-12T19:39:16.522Z,0.5
2023-02-12T19:44:18.676Z,0.6
2023-02-12T19:49:17.724Z,0.5
2023-02-12T19:54:18.373Z,0.7
2023-02-12T19:59:18.925Z,0.4
2023-02-12T20:04:19.511Z,0.6
2023-02-12T20:09:20.041Z,0.5
2023-02-12T20:14:20.789Z,0.6
2023-02-12T20:19:21.195Z,0.5
2023-02-12T20:24:21.693Z,0.7
2023-02-12T20:29:22.539Z,0.7
2023-02-12T20:34:22.812Z,0.7
2023-02-12T20:39:23.425Z,0.9
2023-02-12T20:44:24.082Z,0.8
2023-02-12T20:49:24.528Z,0.9
2023-02-12T20:54:25.122Z,0.7
2023-02-12T20:59:25.968Z,0.7
2023-02-12T21:04:26.821Z,0.8
2023-02-12T21:09:26.804Z,0.9
2023-02-12T21:14:27.411Z,0.7
2023-02-12T21:19:27.975Z,0.7
2023-02-12T21:24:28.414Z,0.8
2023-02-12T21:29:28.998Z,0.7
2023-02-12T21:34:29.520Z,0.6
2023-02-12T21:39:30.071Z,0.7
2023-02-12T21:44:30.730Z,0.7
2023-02-12T21:49:31.124Z,0.8
2023-02-12T21:54:31.812Z,0.9
2023-02-12T21:59:32.741Z,0.6
2023-02-12T22:04:32.821Z,0.6
2023-02-12T22:09:33.444Z,0.8
2023-02-12T22:14:33.993Z,0.7
2023-02-12T22:19:34.524Z,0.8
2023-02-12T22:24:34.994Z,0.9
2023-02-12T22:29:35.983Z,0.8
2023-02-12T22:34:36.094Z,0.9
2023-02-12T22:39:36.715Z,1.0
2023-02-12T22:44:37.257Z,0.9
2023-02-12T22:49:37.736Z,0.8
2023-02-12T22:54:38.306Z,0.9
2023-02-12T22:59:38.882Z,1.1
2023-02-12T23:04:39.401Z,0.9
2023-02-12T23:09:39.919Z,0.7
2023-02-12T23:14:40.681Z,0.8
2023-02-12T23:19:41.034Z,0.7
2023-02-12T23:24:41.533Z,1.0
2023-02-12T23:29:42.453Z,0.9
2023-02-12T23:34:42.537Z,0.7
2023-02-12T23:39:43.105Z,0.8
2023-02-12T23:44:43.738Z,0.9
2023-02-12T23:49:44.111Z,0.8
2023-02-12T23:54:44.713Z,0.9
2023-02-12T23:59:45.235Z,0.8
